Time;durP1;ratioP1;P1;durP2;ratioP2;P2;SDS_P1;SDS_P2;PMS_P1;PMS_P2;Temp;Humidity;BMP_temperature;BMP_pressure;BME280_temperature;BME280_humidity;BME280_pressure;Samples;Min_cycle;Max_cycle;Signal;HPM_P1;HPM_P2
2022/01/18 00:01:23;;;;;;;231.03;214.27;;;6.50;99.90;;;;;;4999014;28;20250;-81
2022/01/18 00:03:49;;;;;;;230.83;214.83;;;6.50;99.90;;;;;;5011404;28;20608;-82
2022/01/18 00:06:14;;;;;;;233.80;217.23;;;6.50;99.90;;;;;;5013486;28;20203;-80
2022/01/18 00:08:40;;;;;;;234.67;218.73;;;6.50;99.90;;;;;;5010012;28;20195;-81
2022/01/18 00:11:06;;;;;;;234.60;217.90;;;6.40;99.90;;;;;;5003301;28;20269;-80
2022/01/18 00:18:32;;;;;;;237.47;220.07;;;6.40;99.90;;;;;;5002113;28;20203;-82
2022/01/18 00:21:13;;;;;;;237.83;221.70;;;6.40;99.90;;;;;;4990746;28;20191;-82
2022/01/18 00:23:39;;;;;;;238.07;222.10;;;6.40;99.90;;;;;;5007185;28;20194;-81
2022/01/18 00:26:07;;;;;;;238.83;221.60;;;6.40;99.90;;;;;;4998394;28;20185;-81
2022/01/18 00:28:33;;;;;;;238.50;221.60;;;6.50;99.90;;;;;;5007672;28;20224;-80
2022/01/18 00:36:02;;;;;;;236.90;220.67;;;6.40;99.90;;;;;;4984292;28;20292;-82
2022/01/18 00:38:43;;;;;;;239.23;223.47;;;6.40;99.90;;;;;;5010493;28;20300;-81
2022/01/18 00:41:10;;;;;;;238.37;222.50;;;6.50;99.90;;;;;;4976979;28;20184;-79
2022/01/18 00:43:35;;;;;;;231.40;215.33;;;6.50;99.90;;;;;;5007513;28;20614;-80
2022/01/18 00:46:02;;;;;;;229.60;212.97;;;6.50;99.90;;;;;;5011816;28;20195;-81
2022/01/18 00:48:32;;;;;;;224.73;209.70;;;6.60;99.90;;;;;;5009884;28;20289;-81
2022/01/18 00:50:58;;;;;;;227.90;212.33;;;6.60;99.90;;;;;;5006624;28;20282;-82
2022/01/18 00:53:26;;;;;;;223.47;208.93;;;6.60;99.90;;;;;;5002253;28;20251;-82
2022/01/18 00:58:37;;;;;;;226.70;211.80;;;6.60;99.90;;;;;;4998327;28;20202;-81
2022/01/18 01:01:03;;;;;;;226.57;209.93;;;6.60;99.90;;;;;;4994514;28;20191;-80
2022/01/18 01:03:29;;;;;;;220.93;205.90;;;6.60;99.90;;;;;;4972696;28;20219;-82
2022/01/18 01:05:55;;;;;;;221.57;206.47;;;6.60;99.90;;;;;;5001583;28;20506;-80
2022/01/18 01:08:21;;;;;;;226.50;211.10;;;6.60;99.90;;;;;;4990759;28;20184;-81
2022/01/18 01:10:47;;;;;;;229.80;214.63;;;6.60;99.90;;;;;;5010240;28;20187;-81
2022/01/18 01:13:14;;;;;;;230.13;215.37;;;6.50;99.90;;;;;;5006943;28;20749;-82
2022/01/18 01:16:26;;;;;;;234.47;218.43;;;6.50;99.90;;;;;;5003297;28;20183;-82
2022/01/18 01:35:31;;;;;;;233.77;218.63;;;6.50;99.90;;;;;;5005605;28;20250;-81
2022/01/18 01:43:27;;;;;;;244.17;228.50;;;6.30;99.90;;;;;;5002635;28;20218;-80
2022/01/18 01:45:54;;;;;;;238.60;224.03;;;6.30;99.90;;;;;;5003046;28;20200;-83
2022/01/18 01:48:22;;;;;;;240.17;224.17;;;6.30;99.90;;;;;;4996533;28;20257;-81
2022/01/18 01:50:53;;;;;;;242.70;226.90;;;6.30;99.90;;;;;;4992298;28;20183;-80
2022/01/18 01:53:21;;;;;;;241.03;225.43;;;6.20;99.90;;;;;;5007357;28;20184;-81
2022/01/18 01:55:49;;;;;;;243.57;226.87;;;6.20;99.90;;;;;;5003989;28;20192;-81
2022/01/18 01:58:16;;;;;;;238.57;223.23;;;6.20;99.90;;;;;;5001463;28;20674;-81
2022/01/18 02:00:45;;;;;;;238.80;222.60;;;6.30;99.90;;;;;;5002288;28;20206;-81
2022/01/18 02:03:13;;;;;;;239.17;224.27;;;6.30;99.90;;;;;;4985423;28;20207;-81
2022/01/18 02:05:39;;;;;;;238.00;222.90;;;6.30;99.90;;;;;;5007837;28;20224;-81
2022/01/18 02:08:07;;;;;;;241.17;225.93;;;6.30;99.90;;;;;;5007885;28;20188;-81
2022/01/18 02:10:37;;;;;;;242.53;226.43;;;6.30;99.90;;;;;;5005421;28;20566;-80
2022/01/18 02:13:04;;;;;;;235.57;219.77;;;6.30;99.90;;;;;;5004165;28;20204;-81
2022/01/18 02:15:30;;;;;;;241.83;226.53;;;6.30;99.90;;;;;;4996706;28;20198;-82
2022/01/18 02:23:30;;;;;;;242.00;227.13;;;6.20;99.90;;;;;;5005486;28;20656;-81
2022/01/18 02:25:57;;;;;;;241.47;226.77;;;6.20;99.90;;;;;;5005330;28;20195;-80
2022/01/18 02:28:24;;;;;;;243.73;227.97;;;6.20;99.90;;;;;;5007970;28;20222;-80
2022/01/18 02:30:51;;;;;;;248.83;233.10;;;6.20;99.90;;;;;;5003406;28;20180;-82
2022/01/18 02:33:18;;;;;;;250.00;234.60;;;6.20;99.90;;;;;;4992683;28;20226;-82
2022/01/18 02:35:45;;;;;;;249.97;233.50;;;6.20;99.90;;;;;;5005199;28;20222;-80
2022/01/18 02:38:11;;;;;;;254.27;237.77;;;6.20;99.90;;;;;;5006475;28;20752;-82
2022/01/18 02:40:37;;;;;;;256.83;240.40;;;6.20;99.90;;;;;;5003035;28;20188;-81
2022/01/18 02:45:52;;;;;;;257.03;239.83;;;6.20;99.90;;;;;;5003894;28;20187;-79
2022/01/18 02:48:18;;;;;;;258.00;241.53;;;6.20;99.90;;;;;;5004244;28;20235;-81
2022/01/18 02:50:43;;;;;;;262.30;245.17;;;6.20;99.90;;;;;;5001284;28;20211;-82
2022/01/18 02:53:10;;;;;;;263.63;245.47;;;6.20;99.90;;;;;;5002539;28;20197;-81
2022/01/18 02:55:36;;;;;;;261.97;244.63;;;6.20;99.90;;;;;;5006459;28;20278;-81
2022/01/18 02:58:07;;;;;;;264.77;246.77;;;6.20;99.90;;;;;;5010379;28;20647;-81
2022/01/18 03:00:45;;;;;;;263.80;245.67;;;6.20;99.90;;;;;;5007663;28;20239;-80
2022/01/18 03:03:16;;;;;;;264.63;247.97;;;6.20;99.90;;;;;;5008524;28;20986;-81
2022/01/18 03:05:43;;;;;;;266.57;249.40;;;6.10;99.90;;;;;;4985706;28;20188;-81
2022/01/18 03:08:11;;;;;;;267.47;249.97;;;6.10;99.90;;;;;;5003283;28;20190;-81
2022/01/18 03:10:38;;;;;;;264.03;247.03;;;6.10;99.90;;;;;;5006397;28;20192;-80
2022/01/18 03:13:05;;;;;;;268.00;249.63;;;6.10;99.90;;;;;;5004111;28;20211;-79
2022/01/18 03:15:33;;;;;;;267.13;249.93;;;6.10;99.90;;;;;;5005970;28;20199;-81
2022/01/18 03:18:00;;;;;;;266.70;249.47;;;6.10;99.90;;;;;;5002611;28;20199;-81
2022/01/18 03:20:26;;;;;;;270.03;251.83;;;6.10;99.90;;;;;;5002142;28;20267;-80
2022/01/18 03:22:52;;;;;;;266.73;251.13;;;6.10;99.90;;;;;;4999717;28;20273;-79
2022/01/18 03:28:04;;;;;;;267.30;250.83;;;6.10;99.90;;;;;;5003278;28;20338;-79
2022/01/18 03:30:35;;;;;;;268.83;252.97;;;6.10;99.90;;;;;;5002369;28;20203;-81
2022/01/18 03:33:03;;;;;;;272.17;254.83;;;6.00;99.90;;;;;;5007929;28;20670;-79
2022/01/18 03:35:29;;;;;;;272.83;256.90;;;6.00;99.90;;;;;;5001091;28;20199;-80
2022/01/18 03:37:54;;;;;;;276.43;259.57;;;6.00;99.90;;;;;;5007721;28;20204;-81
2022/01/18 03:40:21;;;;;;;273.53;257.63;;;5.90;99.90;;;;;;5006775;28;20211;-79
2022/01/18 03:42:47;;;;;;;276.27;259.60;;;5.90;99.90;;;;;;5008132;28;20580;-78
2022/01/18 03:45:16;;;;;;;276.27;259.20;;;5.90;99.90;;;;;;5004248;28;20183;-78
2022/01/18 03:47:45;;;;;;;276.70;258.97;;;5.90;99.90;;;;;;4999375;28;20252;-79
2022/01/18 03:50:12;;;;;;;273.53;257.77;;;5.80;99.90;;;;;;4983085;28;20196;-80
2022/01/18 03:52:40;;;;;;;277.10;260.77;;;5.80;99.90;;;;;;4984502;28;20212;-79
2022/01/18 03:55:08;;;;;;;279.17;261.93;;;5.80;99.90;;;;;;4964238;28;20197;-80
2022/01/18 03:57:33;;;;;;;279.63;262.80;;;5.80;99.90;;;;;;5000698;28;20213;-80
2022/01/18 03:59:59;;;;;;;278.33;261.40;;;5.80;99.90;;;;;;4958262;28;20208;-78
2022/01/18 04:02:25;;;;;;;277.20;261.23;;;5.70;99.90;;;;;;4958101;28;20244;-80
2022/01/18 04:04:51;;;;;;;278.67;261.77;;;5.70;99.90;;;;;;4986089;28;20277;-80
2022/01/18 04:07:16;;;;;;;277.37;260.30;;;5.70;99.90;;;;;;4980509;28;20194;-79
2022/01/18 04:09:42;;;;;;;278.37;261.93;;;5.70;99.90;;;;;;4993844;28;20360;-79
2022/01/18 04:12:08;;;;;;;284.70;266.43;;;5.80;99.90;;;;;;4978786;28;20220;-79
2022/01/18 04:14:36;;;;;;;283.10;265.60;;;5.80;99.90;;;;;;4963848;28;20212;-80
2022/01/18 04:25:51;;;;;;;274.00;257.50;;;5.80;99.90;;;;;;4983539;28;20204;-80
2022/01/18 04:27:57;;;;;;;275.10;259.70;;;5.80;99.90;;;;;;4980017;28;20297;-80
2022/01/18 04:30:23;;;;;;;274.03;258.50;;;5.80;99.90;;;;;;4970185;28;20291;-80
2022/01/18 04:32:49;;;;;;;273.00;257.63;;;5.80;99.90;;;;;;4970182;28;20276;-78
2022/01/18 04:35:14;;;;;;;274.47;258.43;;;5.80;99.90;;;;;;4983210;28;20204;-80
2022/01/18 04:37:40;;;;;;;273.90;258.53;;;5.80;99.90;;;;;;4978626;28;20208;-79
2022/01/18 04:40:12;;;;;;;270.03;254.37;;;5.80;99.90;;;;;;4969878;28;20193;-79
2022/01/18 04:50:50;;;;;;;277.70;261.90;;;5.80;99.90;;;;;;5009486;28;20250;-79
2022/01/18 04:53:16;;;;;;;276.33;259.57;;;5.80;99.90;;;;;;5010784;28;20203;-79
2022/01/18 04:55:42;;;;;;;279.23;262.57;;;5.80;99.90;;;;;;5005316;28;20210;-80
2022/01/18 04:58:07;;;;;;;283.57;267.00;;;5.80;99.90;;;;;;4993239;28;20208;-79
2022/01/18 05:00:34;;;;;;;282.17;265.57;;;5.90;99.90;;;;;;5010892;28;20308;-80
2022/01/18 05:03:00;;;;;;;279.07;262.40;;;5.90;99.90;;;;;;4992647;28;20216;-80
2022/01/18 05:05:29;;;;;;;286.70;269.80;;;5.90;99.90;;;;;;4996456;28;20215;-79
2022/01/18 05:08:02;;;;;;;287.17;270.60;;;6.00;99.90;;;;;;4996252;28;20203;-78
2022/01/18 05:10:30;;;;;;;287.30;270.43;;;6.00;99.90;;;;;;5015887;28;20183;-79
2022/01/18 05:12:57;;;;;;;294.50;277.23;;;6.00;99.90;;;;;;5009887;28;20493;-79
2022/01/18 05:23:05;;;;;;;289.57;273.07;;;5.90;99.90;;;;;;5007811;28;20337;-78
2022/01/18 05:25:32;;;;;;;281.93;265.50;;;5.90;99.90;;;;;;4980408;28;20215;-79
2022/01/18 05:28:01;;;;;;;286.07;270.63;;;5.80;99.90;;;;;;5000269;28;20214;-80
2022/01/18 05:30:30;;;;;;;285.60;270.00;;;5.80;99.90;;;;;;5004383;28;20220;-80
2022/01/18 05:32:57;;;;;;;282.53;266.10;;;5.80;99.90;;;;;;4981617;28;20200;-78
2022/01/18 05:35:23;;;;;;;286.17;269.10;;;5.70;99.90;;;;;;5007415;28;20191;-81
2022/01/18 05:37:50;;;;;;;288.87;270.77;;;5.60;99.90;;;;;;5011041;28;20184;-80
2022/01/18 05:40:17;;;;;;;281.47;264.47;;;5.60;99.90;;;;;;5004373;28;20678;-79
2022/01/18 05:42:44;;;;;;;290.60;271.70;;;5.60;99.90;;;;;;5006431;28;20234;-81
2022/01/18 05:45:10;;;;;;;287.50;268.43;;;5.50;99.90;;;;;;5006109;28;20190;-79
2022/01/18 05:47:38;;;;;;;292.23;270.63;;;5.50;99.90;;;;;;5004555;28;20314;-79
2022/01/18 05:50:05;;;;;;;292.47;275.40;;;5.50;99.90;;;;;;4977810;28;20205;-81
2022/01/18 05:52:31;;;;;;;285.03;267.93;;;5.40;99.90;;;;;;5008008;28;20565;-79
2022/01/18 05:54:57;;;;;;;281.63;264.60;;;5.40;99.90;;;;;;5002204;28;20195;-80
2022/01/18 05:57:22;;;;;;;286.67;270.00;;;5.40;99.90;;;;;;5007251;28;20208;-79
2022/01/18 05:59:50;;;;;;;295.13;272.53;;;5.40;99.90;;;;;;5004155;28;20190;-80
2022/01/18 06:02:19;;;;;;;284.87;265.70;;;5.50;99.90;;;;;;5007023;28;20285;-79
2022/01/18 06:07:30;;;;;;;281.03;263.43;;;5.50;99.90;;;;;;5008674;28;20197;-80
2022/01/18 06:09:56;;;;;;;280.30;263.03;;;5.50;99.90;;;;;;4972910;28;20836;-80
2022/01/18 06:12:29;;;;;;;292.73;267.17;;;5.50;99.90;;;;;;5006445;28;20199;-79
2022/01/18 06:15:12;;;;;;;291.60;269.13;;;5.60;99.90;;;;;;5008423;28;20969;-80
2022/01/18 06:17:38;;;;;;;296.97;271.83;;;5.50;99.90;;;;;;5006313;28;20195;-79
2022/01/18 06:20:06;;;;;;;310.43;284.60;;;5.50;99.90;;;;;;5004410;28;20199;-79
2022/01/18 06:22:31;;;;;;;311.33;283.97;;;5.50;99.90;;;;;;5007585;28;20309;-79
2022/01/18 06:24:57;;;;;;;307.67;285.13;;;5.50;99.90;;;;;;4973691;28;20629;-79
2022/01/18 06:27:23;;;;;;;315.23;289.43;;;5.40;99.90;;;;;;4981805;28;20203;-80
2022/01/18 06:29:48;;;;;;;316.43;294.73;;;5.40;99.90;;;;;;4968566;28;20205;-78
2022/01/18 06:32:14;;;;;;;326.27;304.57;;;5.40;99.90;;;;;;5010892;28;20210;-81
2022/01/18 06:34:40;;;;;;;333.73;312.63;;;5.40;99.90;;;;;;4992567;28;20199;-81
2022/01/18 06:37:07;;;;;;;336.60;314.53;;;5.40;99.90;;;;;;5003233;28;20195;-81
2022/01/18 06:39:34;;;;;;;340.53;318.57;;;5.40;99.90;;;;;;5006156;28;20196;-80
2022/01/18 06:41:59;;;;;;;339.87;316.77;;;5.40;99.90;;;;;;4988745;28;20200;-80
2022/01/18 06:44:25;;;;;;;333.40;311.63;;;5.30;99.90;;;;;;5004875;28;20363;-79
2022/01/18 06:46:52;;;;;;;330.93;308.30;;;5.30;99.90;;;;;;5000030;28;20184;-80
2022/01/18 06:49:17;;;;;;;329.47;308.20;;;5.20;99.90;;;;;;5008437;28;20238;-79
2022/01/18 06:51:43;;;;;;;326.83;307.07;;;5.20;99.90;;;;;;4993812;28;20192;-80
2022/01/18 06:54:15;;;;;;;330.60;310.13;;;5.10;99.90;;;;;;5005594;28;20262;-80
2022/01/18 06:56:47;;;;;;;325.77;303.97;;;5.10;99.90;;;;;;5012459;28;20187;-81
2022/01/18 06:59:13;;;;;;;334.50;312.57;;;5.10;99.90;;;;;;5012351;28;20298;-80
2022/01/18 07:01:39;;;;;;;337.30;315.53;;;5.10;99.90;;;;;;5001912;28;20199;-81
2022/01/18 07:04:06;;;;;;;328.70;307.77;;;5.00;99.90;;;;;;5008151;28;20259;-78
2022/01/18 07:06:32;;;;;;;333.97;311.93;;;5.00;99.90;;;;;;5004033;28;20505;-81
2022/01/18 07:08:59;;;;;;;334.80;312.83;;;4.90;99.90;;;;;;5003035;28;20283;-80
2022/01/18 07:11:25;;;;;;;335.57;315.97;;;4.80;99.90;;;;;;5016085;28;20241;-80
2022/01/18 07:13:50;;;;;;;335.47;314.93;;;4.70;99.90;;;;;;5005963;28;20212;-80
2022/01/18 07:16:16;;;;;;;342.63;319.53;;;4.70;99.90;;;;;;4993547;28;20246;-81
2022/01/18 07:18:42;;;;;;;347.03;327.07;;;4.50;99.90;;;;;;5016608;28;20207;-79
2022/01/18 07:21:09;;;;;;;353.43;333.13;;;4.50;99.90;;;;;;5015026;28;20572;-80
2022/01/18 07:23:38;;;;;;;358.27;337.07;;;4.40;99.90;;;;;;4980879;28;20992;-79
2022/01/18 07:26:04;;;;;;;356.53;335.30;;;4.30;99.90;;;;;;4981725;28;20197;-80
2022/01/18 07:28:30;;;;;;;354.60;333.47;;;4.20;99.90;;;;;;5004913;28;20224;-82
2022/01/18 07:30:56;;;;;;;472.43;443.23;;;4.20;99.90;;;;;;5010262;28;20211;-79
2022/01/18 07:33:21;;;;;;;371.40;350.17;;;4.20;99.90;;;;;;4984486;28;20227;-79
2022/01/18 07:35:47;;;;;;;367.13;346.13;;;4.10;99.90;;;;;;5007587;28;20218;-80
2022/01/18 07:38:16;;;;;;;370.23;349.53;;;4.10;99.90;;;;;;5009206;28;20274;-80
2022/01/18 07:40:44;;;;;;;374.47;353.67;;;4.00;99.90;;;;;;5007605;28;20216;-80
2022/01/18 07:43:11;;;;;;;378.17;355.13;;;4.00;99.90;;;;;;5009896;28;20242;-81
2022/01/18 07:45:37;;;;;;;388.90;366.70;;;3.90;99.90;;;;;;5007983;28;20192;-80
2022/01/18 07:48:03;;;;;;;391.33;369.87;;;3.90;99.90;;;;;;5004747;28;20247;-80
2022/01/18 07:50:29;;;;;;;391.83;369.30;;;3.80;99.90;;;;;;4994643;28;20659;-80
2022/01/18 07:52:56;;;;;;;403.43;380.10;;;3.80;99.90;;;;;;5006700;28;20206;-80
2022/01/18 07:55:22;;;;;;;424.90;400.97;;;3.80;99.90;;;;;;5008495;28;20292;-80
2022/01/18 07:57:47;;;;;;;429.23;404.87;;;3.80;99.90;;;;;;4995478;28;20207;-80
2022/01/18 08:00:16;;;;;;;436.90;411.33;;;3.80;99.90;;;;;;5005779;28;21027;-80
2022/01/18 08:02:42;;;;;;;443.67;417.27;;;3.80;99.90;;;;;;4990314;28;20194;-78
2022/01/18 08:05:09;;;;;;;440.83;414.37;;;3.80;99.90;;;;;;5005501;28;20188;-80
2022/01/18 08:07:36;;;;;;;443.63;416.80;;;3.80;99.90;;;;;;5005094;28;20196;-80
2022/01/18 08:10:04;;;;;;;451.03;424.20;;;3.90;99.90;;;;;;5009002;28;20211;-81
2022/01/18 08:12:30;;;;;;;453.50;427.30;;;4.00;99.90;;;;;;5011438;28;20201;-80
2022/01/18 08:15:02;;;;;;;455.67;427.87;;;4.00;99.90;;;;;;4986939;28;20264;-80
2022/01/18 08:17:27;;;;;;;453.33;426.47;;;4.00;99.90;;;;;;4975409;28;20191;-81
2022/01/18 08:19:54;;;;;;;488.17;457.97;;;4.10;99.90;;;;;;5006562;28;20592;-80
2022/01/18 08:22:19;;;;;;;458.63;430.70;;;4.10;99.90;;;;;;5006665;28;20184;-81
2022/01/18 08:24:45;;;;;;;460.40;432.13;;;4.00;99.90;;;;;;5011330;28;20275;-80
2022/01/18 08:27:11;;;;;;;464.00;436.03;;;4.10;99.90;;;;;;5015605;28;20196;-80
2022/01/18 08:29:37;;;;;;;464.23;436.23;;;4.10;99.90;;;;;;4974793;28;20218;-81
2022/01/18 08:32:05;;;;;;;463.87;436.03;;;4.20;99.90;;;;;;5011494;28;20183;-79
2022/01/18 08:34:30;;;;;;;462.90;434.53;;;4.20;99.90;;;;;;5007914;28;20188;-79
2022/01/18 08:36:56;;;;;;;457.47;429.63;;;4.20;99.90;;;;;;4982752;28;20192;-81
2022/01/18 08:39:22;;;;;;;459.73;431.57;;;4.20;99.90;;;;;;5006063;28;20284;-80
2022/01/18 08:41:48;;;;;;;474.70;446.43;;;4.30;99.90;;;;;;5007834;28;20700;-80
2022/01/18 08:44:15;;;;;;;464.60;436.33;;;4.30;99.90;;;;;;4997039;28;20224;-80
2022/01/18 08:46:41;;;;;;;457.57;429.57;;;4.30;99.90;;;;;;5012515;28;20194;-79
2022/01/18 08:49:06;;;;;;;468.63;440.03;;;4.30;99.90;;;;;;5000346;28;20263;-81
2022/01/18 08:51:33;;;;;;;466.57;437.73;;;4.40;99.90;;;;;;5014987;28;20192;-78
2022/01/18 08:53:59;;;;;;;461.90;432.87;;;4.40;99.90;;;;;;5010287;28;20180;-81
2022/01/18 08:56:25;;;;;;;460.47;430.77;;;4.40;99.90;;;;;;5010515;28;20198;-81
2022/01/18 08:58:51;;;;;;;465.10;436.07;;;4.50;99.90;;;;;;5013263;28;20681;-81
2022/01/18 09:01:17;;;;;;;462.60;432.77;;;4.50;99.90;;;;;;5010739;28;20196;-80
2022/01/18 09:03:44;;;;;;;466.17;435.10;;;4.50;99.90;;;;;;4976745;28;20219;-80
2022/01/18 09:06:13;;;;;;;472.37;439.87;;;4.50;99.90;;;;;;4997093;28;21172;-80
2022/01/18 09:08:40;;;;;;;468.00;438.13;;;4.60;99.90;;;;;;5006205;28;20189;-79
2022/01/18 09:11:07;;;;;;;471.17;439.00;;;4.60;99.90;;;;;;4976663;28;20195;-80
2022/01/18 09:13:35;;;;;;;470.90;439.03;;;4.70;99.90;;;;;;4995554;28;20210;-80
2022/01/18 09:16:01;;;;;;;480.80;449.37;;;4.70;99.90;;;;;;4961165;28;20188;-80
2022/01/18 09:18:27;;;;;;;475.03;444.20;;;4.80;99.90;;;;;;4996757;28;20662;-81
2022/01/18 09:20:53;;;;;;;464.23;434.90;;;4.80;99.90;;;;;;5005980;28;20190;-79
2022/01/18 09:23:18;;;;;;;460.93;431.03;;;5.00;99.90;;;;;;4971346;28;20882;-81
2022/01/18 09:25:44;;;;;;;470.77;438.97;;;5.00;99.90;;;;;;5012315;28;20196;-80
2022/01/18 09:28:11;;;;;;;469.83;435.77;;;5.00;99.90;;;;;;5004409;28;20180;-80
2022/01/18 09:30:38;;;;;;;472.43;440.07;;;5.00;99.90;;;;;;5010161;28;20215;-79
2022/01/18 09:33:06;;;;;;;472.10;439.73;;;5.10;99.90;;;;;;4994148;28;20198;-80
2022/01/18 09:35:34;;;;;;;462.83;430.87;;;5.10;99.90;;;;;;5004963;28;20211;-81
2022/01/18 09:38:00;;;;;;;468.60;437.47;;;5.10;99.90;;;;;;5004979;28;20226;-80
2022/01/18 09:40:25;;;;;;;464.73;432.27;;;5.10;99.90;;;;;;5010733;28;20262;-80
2022/01/18 09:42:57;;;;;;;483.60;449.90;;;5.10;99.90;;;;;;5007680;28;20207;-80
2022/01/18 09:45:25;;;;;;;475.10;443.63;;;5.10;99.90;;;;;;5002731;28;20231;-80
2022/01/18 09:47:56;;;;;;;474.53;441.87;;;5.30;99.90;;;;;;4977085;28;20314;-81
2022/01/18 09:50:29;;;;;;;479.17;445.37;;;5.20;99.90;;;;;;5005171;28;20646;-79
2022/01/18 09:52:56;;;;;;;477.33;446.50;;;5.30;99.90;;;;;;5008808;28;20665;-79
2022/01/18 09:55:24;;;;;;;463.70;433.53;;;5.30;99.90;;;;;;4990038;28;20282;-80
2022/01/18 09:57:51;;;;;;;471.47;439.67;;;5.30;99.90;;;;;;5008664;28;20208;-81
2022/01/18 10:00:18;;;;;;;473.97;442.37;;;5.30;99.90;;;;;;5016091;28;20479;-80
2022/01/18 10:02:44;;;;;;;473.70;441.87;;;5.30;99.90;;;;;;5008818;28;20206;-80
2022/01/18 10:05:23;;;;;;;476.53;442.50;;;5.30;99.90;;;;;;5011229;28;20187;-81
2022/01/18 10:07:56;;;;;;;468.07;435.40;;;5.40;99.90;;;;;;5006335;28;20214;-81
2022/01/18 10:10:47;;;;;;;467.60;435.10;;;5.40;99.90;;;;;;5009875;28;20237;-79
2022/01/18 10:13:21;;;;;;;470.70;440.10;;;5.40;99.90;;;;;;5008489;28;20207;-80
2022/01/18 10:16:08;;;;;;;454.10;423.73;;;5.60;99.90;;;;;;5015563;28;20186;-80
2022/01/18 10:18:49;;;;;;;449.83;420.90;;;5.70;99.90;;;;;;5011239;28;20447;-79
2022/01/18 10:21:33;;;;;;;455.40;425.20;;;5.80;99.90;;;;;;4992337;28;20605;-81
2022/01/18 10:24:11;;;;;;;449.30;420.23;;;5.70;99.90;;;;;;5009991;28;20223;-80
2022/01/18 10:26:44;;;;;;;448.57;420.10;;;5.70;99.90;;;;;;5007512;28;20266;-80
2022/01/18 10:29:11;;;;;;;441.97;413.70;;;5.70;99.90;;;;;;5010754;28;20747;-81
2022/01/18 10:31:54;;;;;;;446.60;419.13;;;5.80;99.90;;;;;;5001422;28;20191;-81
2022/01/18 10:37:13;;;;;;;444.60;416.80;;;6.10;99.90;;;;;;5009884;28;20194;-81
2022/01/18 10:39:41;;;;;;;446.00;416.73;;;6.20;99.90;;;;;;5007085;28;20207;-79
2022/01/18 10:42:32;;;;;;;445.70;417.67;;;6.30;99.90;;;;;;5006387;28;20535;-79
2022/01/18 10:45:09;;;;;;;438.77;409.93;;;6.40;99.90;;;;;;4984230;28;20262;-80
2022/01/18 10:47:36;;;;;;;435.73;407.20;;;6.40;99.90;;;;;;5003501;28;20278;-80
2022/01/18 10:50:13;;;;;;;438.07;409.17;;;6.40;99.90;;;;;;5002589;28;20198;-80
2022/01/18 10:52:39;;;;;;;436.20;409.40;;;6.40;99.90;;;;;;5008653;28;20237;-80
2022/01/18 10:55:06;;;;;;;434.53;407.53;;;6.40;99.90;;;;;;5006889;28;20195;-81
2022/01/18 10:57:38;;;;;;;428.80;401.90;;;6.40;99.90;;;;;;4978051;28;20196;-81
2022/01/18 11:00:07;;;;;;;430.03;403.60;;;6.40;99.90;;;;;;5002685;28;20191;-80
2022/01/18 11:02:35;;;;;;;423.13;395.67;;;6.40;99.90;;;;;;5006984;28;20237;-80
2022/01/18 11:05:16;;;;;;;417.70;390.33;;;6.40;99.90;;;;;;5003402;28;20950;-80
2022/01/18 11:07:43;;;;;;;401.50;376.60;;;6.50;99.90;;;;;;5001328;28;21161;-78
2022/01/18 11:10:10;;;;;;;395.73;370.67;;;6.50;99.90;;;;;;4978057;28;20176;-81
2022/01/18 11:12:54;;;;;;;390.93;367.00;;;6.60;99.90;;;;;;5010802;28;20207;-79
2022/01/18 11:15:22;;;;;;;386.67;362.37;;;6.70;99.90;;;;;;5004164;28;20200;-80
2022/01/18 11:17:56;;;;;;;366.07;343.80;;;6.80;99.90;;;;;;4982623;28;20178;-79
2022/01/18 11:20:23;;;;;;;352.20;329.67;;;6.80;99.90;;;;;;4986613;28;20701;-80
2022/01/18 11:22:50;;;;;;;350.47;328.40;;;6.80;99.90;;;;;;5002688;28;20184;-79
2022/01/18 11:25:18;;;;;;;326.80;306.13;;;6.90;99.90;;;;;;5003761;28;20180;-79
2022/01/18 11:27:51;;;;;;;320.30;299.97;;;6.80;99.90;;;;;;5006706;28;20287;-81
2022/01/18 11:30:20;;;;;;;319.00;299.13;;;6.70;99.90;;;;;;5004331;28;20211;-81
2022/01/18 11:32:46;;;;;;;318.80;298.63;;;6.70;99.90;;;;;;5004104;28;20184;-79
2022/01/18 11:35:41;;;;;;;309.33;291.07;;;6.60;99.90;;;;;;5007505;28;20840;-79
2022/01/18 11:38:30;;;;;;;303.97;285.80;;;6.50;99.90;;;;;;4970268;28;20210;-79
2022/01/18 11:40:57;;;;;;;286.03;268.20;;;6.50;99.90;;;;;;5002517;28;20559;-80
2022/01/18 11:43:44;;;;;;;283.33;265.90;;;6.60;99.90;;;;;;4970106;28;20285;-80
2022/01/18 11:46:31;;;;;;;275.60;257.00;;;6.60;99.90;;;;;;5003028;28;20180;-80
2022/01/18 11:49:07;;;;;;;265.60;249.00;;;6.60;99.90;;;;;;5001733;28;20227;-81
2022/01/18 11:51:47;;;;;;;257.93;241.57;;;6.70;99.90;;;;;;5003807;28;20238;-80
2022/01/18 11:54:44;;;;;;;250.37;234.27;;;6.80;99.90;;;;;;5003470;28;20207;-81
2022/01/18 11:57:22;;;;;;;246.20;230.03;;;6.80;99.90;;;;;;4990750;28;20534;-80
2022/01/18 11:59:54;;;;;;;247.50;231.80;;;6.90;99.90;;;;;;5012169;28;20644;-80
2022/01/18 12:02:42;;;;;;;242.50;227.07;;;6.80;99.90;;;;;;5006753;28;20183;-79
2022/01/18 12:05:14;;;;;;;237.20;222.00;;;6.80;99.90;;;;;;5007697;28;20662;-80
2022/01/18 12:07:47;;;;;;;231.60;216.57;;;6.80;99.90;;;;;;5013908;28;20183;-80
2022/01/18 12:10:34;;;;;;;225.70;211.07;;;6.80;99.90;;;;;;5004567;28;20180;-80
2022/01/18 12:13:13;;;;;;;225.20;210.90;;;6.90;99.90;;;;;;5004378;28;20208;-80
2022/01/18 12:15:46;;;;;;;213.57;199.27;;;7.00;99.90;;;;;;5006508;28;20187;-81
2022/01/18 12:18:14;;;;;;;216.10;201.67;;;7.00;99.90;;;;;;5007132;28;20192;-82
2022/01/18 12:20:43;;;;;;;216.03;201.37;;;7.10;99.90;;;;;;5006225;28;20249;-79
2022/01/18 12:23:42;;;;;;;209.43;196.03;;;7.00;99.90;;;;;;5006766;28;20214;-79
2022/01/18 12:26:40;;;;;;;208.87;194.53;;;7.00;99.90;;;;;;4993774;28;20189;-80
2022/01/18 12:32:16;;;;;;;209.63;194.87;;;7.10;99.90;;;;;;5011623;28;20274;-81
2022/01/18 12:34:45;;;;;;;202.37;188.17;;;7.10;99.90;;;;;;5011203;28;20196;-80
2022/01/18 12:37:16;;;;;;;207.57;194.10;;;7.10;99.90;;;;;;5003580;28;20231;-79
2022/01/18 12:39:55;;;;;;;201.43;187.23;;;7.10;99.90;;;;;;5006751;28;20258;-80
2022/01/18 12:44:52;;;;;;;194.30;181.37;;;7.10;99.90;;;;;;5008131;28;20921;-80
2022/01/18 12:47:17;;;;;;;197.33;183.07;;;7.10;99.90;;;;;;4975994;28;20235;-80
2022/01/18 12:49:46;;;;;;;188.27;175.10;;;7.10;99.90;;;;;;4986101;28;20232;-80
2022/01/18 12:52:12;;;;;;;196.10;182.23;;;7.10;99.90;;;;;;4983612;28;20249;-81
2022/01/18 12:54:39;;;;;;;196.47;182.13;;;7.20;99.90;;;;;;4988102;28;20188;-81
2022/01/18 12:57:14;;;;;;;180.13;166.83;;;7.20;99.90;;;;;;4977017;28;20261;-81
2022/01/18 12:59:59;;;;;;;184.33;171.87;;;7.20;99.90;;;;;;5002327;28;20187;-82
2022/01/18 13:02:25;;;;;;;183.13;169.93;;;7.10;99.90;;;;;;5007677;28;20966;-81
2022/01/18 13:05:08;;;;;;;181.03;167.90;;;7.10;99.90;;;;;;4972893;28;20235;-79
2022/01/18 13:07:51;;;;;;;184.07;171.07;;;7.20;99.90;;;;;;5007448;28;20271;-79
2022/01/18 13:10:17;;;;;;;180.20;166.77;;;7.20;99.90;;;;;;4991106;28;20222;-79
2022/01/18 13:12:46;;;;;;;182.43;168.83;;;7.20;99.90;;;;;;5009581;28;20240;-82
2022/01/18 13:15:22;;;;;;;187.50;173.27;;;7.20;99.90;;;;;;5007230;28;20529;-80
2022/01/18 13:23:49;;;;;;;182.37;170.30;;;7.10;99.90;;;;;;5006741;28;20278;-81
2022/01/18 13:26:15;;;;;;;182.33;169.03;;;7.00;99.90;;;;;;5006277;28;20206;-80
2022/01/18 13:28:41;;;;;;;178.70;165.87;;;7.00;99.90;;;;;;5008793;28;20211;-81
2022/01/18 13:31:19;;;;;;;181.37;168.27;;;7.00;99.90;;;;;;5002741;28;20243;-80
2022/01/18 13:33:51;;;;;;;177.97;165.33;;;7.00;99.90;;;;;;4994290;28;20203;-80
2022/01/18 13:36:17;;;;;;;178.13;164.97;;;7.00;99.90;;;;;;5004427;28;20188;-81
2022/01/18 13:38:43;;;;;;;178.87;165.63;;;7.10;99.90;;;;;;5001403;28;20195;-80
2022/01/18 13:41:09;;;;;;;179.17;165.83;;;7.20;99.90;;;;;;5007623;28;20183;-80
2022/01/18 13:43:35;;;;;;;175.27;162.30;;;7.20;99.90;;;;;;5004479;28;20277;-80
2022/01/18 13:46:00;;;;;;;174.50;161.10;;;7.20;99.90;;;;;;5006297;28;20207;-81
2022/01/18 13:48:32;;;;;;;166.40;154.07;;;7.20;99.90;;;;;;4994299;28;20232;-81
2022/01/18 13:51:07;;;;;;;168.00;154.93;;;7.20;99.90;;;;;;5004995;28;20188;-80
2022/01/18 13:53:34;;;;;;;169.37;155.77;;;7.10;99.90;;;;;;5007611;28;20192;-79
2022/01/18 13:56:18;;;;;;;169.93;157.23;;;7.00;99.90;;;;;;5000205;28;20618;-80